Time;durP1;ratioP1;P1;durP2;ratioP2;P2;SDS_P1;SDS_P2;PMS_P1;PMS_P2;Temp;Humidity;BMP_temperature;BMP_pressure;BME280_temperature;BME280_humidity;BME280_pressure;Samples;Min_cycle;Max_cycle;Signal;HPM_P1;HPM_P2
2022/10/03 00:01:19;;;;;;;8.40;3.70;;;13.60;92.90;;;;;;5049622;28;20488;-68
2022/10/03 00:03:56;;;;;;;11.00;3.77;;;13.50;93.00;;;;;;5054838;28;20461;-68
2022/10/03 00:06:30;;;;;;;16.20;4.70;;;;;;;;;;5055021;28;20430;-68
2022/10/03 00:09:25;;;;;;;11.37;4.20;;;13.40;93.00;;;;;;5054448;28;20449;-69
2022/10/03 00:11:57;;;;;;;13.60;4.13;;;;;;;;;;5054723;28;20435;-68
2022/10/03 00:14:40;;;;;;;13.83;3.47;;;13.40;93.80;;;;;;5054397;28;20928;-68
2022/10/03 00:17:11;;;;;;;11.90;4.90;;;;;;;;;;5054823;28;20562;-68
2022/10/03 00:19:48;;;;;;;15.90;4.70;;;13.40;93.60;;;;;;5054413;28;20531;-68
2022/10/03 00:22:25;;;;;;;8.73;3.20;;;13.40;94.00;;;;;;5054602;28;20434;-69
2022/10/03 00:25:02;;;;;;;9.17;5.17;;;13.40;94.20;;;;;;5054859;28;20446;-69
2022/10/03 00:27:35;;;;;;;7.33;4.53;;;13.30;94.20;;;;;;5054741;28;20433;-68
2022/10/03 00:30:15;;;;;;;11.40;4.27;;;13.40;94.20;;;;;;5054385;28;20490;-68
2022/10/03 00:32:52;;;;;;;15.00;4.57;;;13.40;94.20;;;;;;5054646;28;20465;-68
2022/10/03 00:35:34;;;;;;;11.23;4.80;;;13.30;94.40;;;;;;5054519;28;20436;-68
2022/10/03 00:38:21;;;;;;;12.53;4.23;;;13.30;94.50;;;;;;5054273;28;20473;-68
2022/10/03 00:41:13;;;;;;;10.73;4.07;;;13.30;94.60;;;;;;5054259;28;20475;-68
2022/10/03 00:44:08;;;;;;;12.30;4.33;;;13.40;94.70;;;;;;5053944;28;20441;-69
2022/10/03 00:47:02;;;;;;;13.13;4.10;;;13.40;94.80;;;;;;5053689;28;20439;-68
2022/10/03 00:49:55;;;;;;;7.33;3.97;;;13.40;94.70;;;;;;5054238;28;20484;-68
2022/10/03 00:52:36;;;;;;;13.50;5.63;;;13.40;94.70;;;;;;5053961;28;20810;-68
2022/10/03 00:55:15;;;;;;;13.07;4.20;;;13.40;94.60;;;;;;5053951;28;20479;-68
2022/10/03 00:58:05;;;;;;;11.37;4.80;;;13.50;94.60;;;;;;5053618;28;20465;-68
2022/10/03 01:00:33;;;;;;;6.70;3.63;;;13.40;94.30;;;;;;5053689;28;20477;-68
2022/10/03 01:03:19;;;;;;;13.17;5.40;;;13.50;94.20;;;;;;5053801;28;20462;-68
2022/10/03 01:06:01;;;;;;;11.87;5.50;;;13.50;94.20;;;;;;5053846;28;20444;-68
2022/10/03 01:09:05;;;;;;;13.80;5.20;;;13.40;94.10;;;;;;5053748;28;20492;-68
2022/10/03 01:11:41;;;;;;;10.60;3.93;;;13.40;94.30;;;;;;4992115;28;20549;-68
2022/10/03 01:14:23;;;;;;;14.13;4.60;;;13.30;94.20;;;;;;5046498;28;20462;-68
2022/10/03 01:16:59;;;;;;;10.30;4.30;;;13.20;94.20;;;;;;5053512;28;20473;-68
2022/10/03 01:19:46;;;;;;;6.50;3.30;;;13.40;94.50;;;;;;5053556;28;20472;-68
2022/10/03 01:22:33;;;;;;;14.00;4.60;;;13.30;94.40;;;;;;5053512;28;20552;-68
2022/10/03 01:25:11;;;;;;;9.30;4.00;;;13.00;94.40;;;;;;5053532;28;20437;-68
2022/10/03 01:30:37;;;;;;;8.23;3.83;;;13.30;94.50;;;;;;5052631;28;20457;-68
2022/10/03 01:33:10;;;;;;;9.23;4.40;;;13.40;94.50;;;;;;5053170;28;20433;-68
2022/10/03 01:35:46;;;;;;;12.27;5.03;;;13.30;94.50;;;;;;5053250;28;20457;-68
2022/10/03 01:38:20;;;;;;;13.07;5.23;;;13.30;94.60;;;;;;5052894;28;21047;-68
2022/10/03 01:40:57;;;;;;;12.20;4.47;;;13.00;94.40;;;;;;5052998;28;21019;-68
2022/10/03 01:43:34;;;;;;;8.93;4.50;;;13.30;94.60;;;;;;5053305;28;20455;-68
2022/10/03 01:46:11;;;;;;;8.77;5.17;;;13.30;94.60;;;;;;5053233;28;20547;-68
2022/10/03 01:48:45;;;;;;;11.30;5.07;;;13.20;94.50;;;;;;5053156;28;20443;-68
2022/10/03 01:51:16;;;;;;;11.80;5.30;;;13.20;94.50;;;;;;5053167;28;20430;-68
2022/10/03 01:53:57;;;;;;;7.07;4.93;;;13.00;94.70;;;;;;5053223;28;20477;-68
2022/10/03 01:56:27;;;;;;;13.60;5.20;;;;;;;;;;5053161;28;20445;-68
2022/10/03 01:59:02;;;;;;;11.77;6.00;;;13.30;94.60;;;;;;5052977;28;20433;-68
2022/10/03 02:01:45;;;;;;;12.23;5.80;;;12.90;94.40;;;;;;5052971;28;20430;-68
2022/10/03 02:04:19;;;;;;;12.57;5.93;;;12.90;95.40;;;;;;5053827;28;20438;-68
2022/10/03 02:06:53;;;;;;;13.77;5.20;;;;;;;;;;5053094;28;20429;-68
2022/10/03 02:09:29;;;;;;;8.40;4.70;;;13.00;97.80;;;;;;5053071;28;20491;-67
2022/10/03 02:12:03;;;;;;;11.43;5.40;;;14.00;95.70;;;;;;5053224;28;20980;-67
2022/10/03 02:14:35;;;;;;;13.93;5.30;;;12.70;95.00;;;;;;5053737;28;20771;-67
2022/10/03 02:17:11;;;;;;;18.37;5.50;;;12.80;99.90;;;;;;5052692;28;20495;-68
2022/10/03 02:19:49;;;;;;;9.00;4.73;;;12.70;99.90;;;;;;5053292;28;20929;-68
2022/10/03 02:22:29;;;;;;;12.17;5.80;;;12.80;99.90;;;;;;5053176;28;20479;-68
2022/10/03 02:25:11;;;;;;;12.53;5.70;;;13.10;98.10;;;;;;5053266;28;20436;-68
2022/10/03 02:28:06;;;;;;;9.87;5.53;;;;;;;;;;5053023;28;20438;-68
2022/10/03 02:30:37;;;;;;;13.67;6.07;;;;;;;;;;5052806;28;20484;-68
2022/10/03 02:33:52;;;;;;;12.63;5.40;;;12.50;95.70;;;;;;5052881;28;20804;-68
2022/10/03 02:37:02;;;;;;;12.07;5.90;;;12.50;96.10;;;;;;5016737;28;20452;-68
2022/10/03 02:39:50;;;;;;;11.50;5.60;;;12.60;97.20;;;;;;4991126;28;20464;-68
2022/10/03 02:42:50;;;;;;;11.40;4.93;;;12.10;96.40;;;;;;4991508;28;20472;-68
2022/10/03 02:46:01;;;;;;;12.40;5.23;;;12.60;96.80;;;;;;5047653;28;20939;-68
2022/10/03 02:48:49;;;;;;;11.93;5.33;;;12.10;96.70;;;;;;4999875;28;20452;-68
2022/10/03 02:51:37;;;;;;;10.83;4.80;;;12.60;96.50;;;;;;5056822;28;20444;-68
2022/10/03 02:54:37;;;;;;;10.70;4.63;;;12.50;95.80;;;;;;5056217;28;20440;-68
2022/10/03 02:57:35;;;;;;;16.40;5.50;;;12.50;96.40;;;;;;5056130;28;20483;-68
2022/10/03 03:00:14;;;;;;;17.37;6.83;;;12.60;96.90;;;;;;5056416;28;20477;-68
2022/10/03 03:03:29;;;;;;;16.17;5.40;;;12.40;96.40;;;;;;5056217;28;20479;-68
2022/10/03 03:06:44;;;;;;;10.77;5.80;;;12.60;98.00;;;;;;5055894;28;20457;-68
2022/10/03 03:09:44;;;;;;;12.33;5.70;;;12.30;96.60;;;;;;5055468;28;20492;-68
2022/10/03 03:12:56;;;;;;;12.00;4.80;;;12.20;98.40;;;;;;5055408;28;20446;-68
2022/10/03 03:16:04;;;;;;;9.17;4.90;;;11.00;97.10;;;;;;5055599;28;20448;-68
2022/10/03 03:18:37;;;;;;;10.90;5.27;;;12.30;97.00;;;;;;5055409;28;20985;-68
2022/10/03 03:21:14;;;;;;;8.33;4.50;;;12.30;96.40;;;;;;5055430;28;20997;-68
2022/10/03 03:24:11;;;;;;;18.23;6.03;;;12.40;96.60;;;;;;5056284;28;20797;-68
2022/10/03 03:26:50;;;;;;;10.13;4.67;;;12.40;96.50;;;;;;5055233;28;20441;-68
2022/10/03 03:29:27;;;;;;;10.67;5.73;;;12.50;96.50;;;;;;5055536;28;20496;-68
2022/10/03 03:32:02;;;;;;;11.70;5.37;;;12.50;96.50;;;;;;5055419;28;20446;-67
2022/10/03 03:34:38;;;;;;;9.73;5.10;;;12.50;96.40;;;;;;5055558;28;20438;-67
2022/10/03 03:37:08;;;;;;;11.00;5.03;;;;;;;;;;5055088;28;20976;-67
2022/10/03 03:39:50;;;;;;;15.90;6.33;;;12.70;98.30;;;;;;5055423;28;20480;-67
2022/10/03 03:42:37;;;;;;;10.57;5.00;;;12.60;96.90;;;;;;5055093;28;20943;-67
2022/10/03 03:45:15;;;;;;;10.07;4.90;;;12.60;98.10;;;;;;5055207;28;20439;-67
2022/10/03 03:47:59;;;;;;;7.90;4.50;;;12.50;97.50;;;;;;5054948;28;20433;-67
2022/10/03 03:50:34;;;;;;;8.77;4.50;;;12.60;95.50;;;;;;5055131;28;20473;-67
2022/10/03 03:53:33;;;;;;;8.10;4.30;;;12.60;95.90;;;;;;5055023;28;20449;-68
2022/10/03 03:56:16;;;;;;;7.57;4.53;;;12.60;95.80;;;;;;5055036;28;20445;-68
2022/10/03 03:58:54;;;;;;;11.73;4.60;;;12.60;95.60;;;;;;5054562;28;21043;-68
2022/10/03 04:01:47;;;;;;;8.33;4.60;;;12.50;95.30;;;;;;5054859;28;20907;-68
2022/10/03 04:04:32;;;;;;;8.80;6.03;;;12.60;95.10;;;;;;5054793;28;20440;-68
2022/10/03 04:07:12;;;;;;;17.23;6.30;;;12.50;94.70;;;;;;5055022;28;20451;-68
2022/10/03 04:10:05;;;;;;;7.60;4.70;;;12.60;94.60;;;;;;5054514;28;20492;-68
2022/10/03 04:12:48;;;;;;;10.30;5.87;;;12.60;94.50;;;;;;5054907;28;20838;-68
2022/10/03 04:15:40;;;;;;;12.20;5.77;;;12.40;94.40;;;;;;5054730;28;20439;-68
2022/10/03 04:21:32;;;;;;;9.80;5.77;;;12.50;94.60;;;;;;5054679;28;20909;-68
2022/10/03 04:24:29;;;;;;;13.90;6.70;;;12.40;94.50;;;;;;5054654;28;20441;-68
2022/10/03 04:27:08;;;;;;;11.30;6.07;;;12.40;94.60;;;;;;5054195;28;20972;-68
2022/10/03 04:29:47;;;;;;;7.27;5.30;;;12.40;94.60;;;;;;5054463;28;20467;-68
2022/10/03 04:33:05;;;;;;;14.40;5.87;;;12.40;94.60;;;;;;5054403;28;20437;-68
2022/10/03 04:36:06;;;;;;;11.70;5.83;;;12.40;94.60;;;;;;5029113;28;20463;-68
2022/10/03 04:38:45;;;;;;;9.30;5.50;;;12.30;94.50;;;;;;5054266;28;20480;-68
2022/10/03 04:41:26;;;;;;;13.70;5.40;;;12.40;94.70;;;;;;5054319;28;20430;-68
2022/10/03 04:44:00;;;;;;;17.50;6.90;;;12.40;94.90;;;;;;5054268;28;20447;-68
2022/10/03 04:46:34;;;;;;;9.70;6.50;;;12.40;95.10;;;;;;5054072;28;20435;-68
2022/10/03 04:49:10;;;;;;;15.30;6.30;;;12.40;95.40;;;;;;5053757;28;21022;-68
2022/10/03 04:51:49;;;;;;;13.93;6.90;;;12.40;95.50;;;;;;5054040;28;20433;-68
2022/10/03 04:54:47;;;;;;;15.67;6.70;;;12.40;95.60;;;;;;5053671;28;20935;-68
2022/10/03 04:57:24;;;;;;;12.43;7.50;;;12.30;95.70;;;;;;5053927;28;20443;-68
2022/10/03 04:59:59;;;;;;;15.00;7.30;;;12.30;95.80;;;;;;5053980;28;20470;-68
2022/10/03 05:02:35;;;;;;;11.20;7.43;;;12.30;95.90;;;;;;5053950;28;20478;-68
2022/10/03 05:05:23;;;;;;;13.87;7.40;;;12.30;96.10;;;;;;5053416;28;20436;-68
2022/10/03 05:07:58;;;;;;;11.83;7.30;;;12.30;96.30;;;;;;5053214;28;20437;-69
2022/10/03 05:10:55;;;;;;;14.80;7.70;;;12.30;96.50;;;;;;5053283;28;20479;-68
2022/10/03 05:13:34;;;;;;;10.73;7.73;;;12.20;96.60;;;;;;5031698;28;21004;-68
2022/10/03 05:16:08;;;;;;;18.83;8.47;;;12.20;96.80;;;;;;5053602;28;20435;-68
2022/10/03 05:18:42;;;;;;;12.43;7.90;;;12.30;96.90;;;;;;5053433;28;20475;-68
2022/10/03 05:21:14;;;;;;;14.63;8.17;;;12.20;97.00;;;;;;5053686;28;20444;-67
2022/10/03 05:23:52;;;;;;;12.30;8.40;;;12.30;97.10;;;;;;5053282;28;20938;-68
2022/10/03 05:26:26;;;;;;;13.70;9.00;;;12.20;97.20;;;;;;5053899;28;20444;-69
2022/10/03 05:29:02;;;;;;;15.10;8.80;;;12.50;97.50;;;;;;5054344;28;20436;-69
2022/10/03 05:31:44;;;;;;;13.00;8.67;;;12.20;97.40;;;;;;5053283;28;20443;-69
2022/10/03 05:34:23;;;;;;;18.80;9.10;;;12.20;97.60;;;;;;5053019;28;20450;-69
2022/10/03 05:37:13;;;;;;;16.97;9.13;;;12.30;97.80;;;;;;5053494;28;20444;-69
2022/10/03 05:39:46;;;;;;;18.27;10.07;;;12.30;97.80;;;;;;5053184;28;20489;-68
2022/10/03 05:42:37;;;;;;;17.80;9.80;;;12.30;97.80;;;;;;5053363;28;20441;-69
2022/10/03 05:45:14;;;;;;;15.23;10.00;;;12.40;97.80;;;;;;5053207;28;20429;-68
2022/10/03 05:47:52;;;;;;;14.83;9.57;;;12.90;98.00;;;;;;5052944;28;20921;-68
2022/10/03 05:50:49;;;;;;;12.83;8.13;;;12.40;97.70;;;;;;5053196;28;20475;-68
2022/10/03 05:53:32;;;;;;;16.40;8.40;;;12.10;97.60;;;;;;5052807;28;20444;-68
2022/10/03 05:56:08;;;;;;;18.10;9.90;;;12.50;97.70;;;;;;5053095;28;20452;-68
2022/10/03 05:58:50;;;;;;;13.47;8.67;;;12.60;97.70;;;;;;5052832;28;20544;-68
2022/10/03 06:01:49;;;;;;;17.30;8.80;;;12.50;97.60;;;;;;5053347;28;20447;-69
2022/10/03 06:04:40;;;;;;;18.07;8.97;;;12.40;97.60;;;;;;5053217;28;20434;-69
2022/10/03 06:07:21;;;;;;;17.40;9.00;;;12.50;97.60;;;;;;5053116;28;20459;-69
2022/10/03 06:10:18;;;;;;;18.97;9.40;;;12.20;97.50;;;;;;5052769;28;20495;-69
2022/10/03 06:12:51;;;;;;;18.27;9.30;;;12.70;97.80;;;;;;5053078;28;20454;-69
2022/10/03 06:15:37;;;;;;;13.27;8.40;;;12.60;97.70;;;;;;5053112;28;20436;-69
2022/10/03 06:18:24;;;;;;;15.40;9.80;;;12.50;97.70;;;;;;5052986;28;20463;-69
2022/10/03 06:21:10;;;;;;;13.73;9.10;;;12.50;98.00;;;;;;5056272;28;20475;-69
2022/10/03 06:24:12;;;;;;;15.60;9.40;;;12.60;98.10;;;;;;5056935;28;20441;-69
2022/10/03 06:27:24;;;;;;;14.47;9.03;;;12.50;98.30;;;;;;5056473;28;20921;-69
2022/10/03 06:30:11;;;;;;;23.87;9.87;;;12.50;98.40;;;;;;5056777;28;20471;-69
2022/10/03 06:33:40;;;;;;;14.80;9.03;;;12.20;99.20;;;;;;5056278;28;20902;-69
2022/10/03 06:36:24;;;;;;;13.60;9.73;;;12.70;99.90;;;;;;5020956;28;20465;-69
2022/10/03 06:39:24;;;;;;;20.13;10.40;;;;;;;;;;5056454;28;20470;-69
2022/10/03 06:42:26;;;;;;;21.77;10.03;;;12.80;98.90;;;;;;5056637;28;20441;-69
2022/10/03 06:45:29;;;;;;;17.03;11.13;;;12.80;98.60;;;;;;5033371;28;20454;-69
2022/10/03 06:48:07;;;;;;;16.43;11.27;;;12.80;99.00;;;;;;5056248;28;20459;-70
2022/10/03 06:50:50;;;;;;;23.17;11.60;;;13.00;99.30;;;;;;5056413;28;20479;-70
2022/10/03 06:53:45;;;;;;;19.13;11.17;;;12.60;99.10;;;;;;5056355;28;20440;-69
2022/10/03 06:56:45;;;;;;;19.27;10.43;;;12.90;99.90;;;;;;5057100;28;20453;-68
2022/10/03 06:59:29;;;;;;;21.10;10.33;;;12.40;99.90;;;;;;5056068;28;20489;-69
2022/10/03 07:02:26;;;;;;;18.20;11.13;;;13.70;99.90;;;;;;5056110;28;20429;-77
2022/10/03 07:05:25;;;;;;;14.87;11.60;;;13.10;99.90;;;;;;5055861;28;20758;-77
2022/10/03 07:08:25;;;;;;;19.20;10.00;;;12.90;99.90;;;;;;5056087;28;20460;-78
2022/10/03 07:11:06;;;;;;;16.17;9.83;;;13.20;99.90;;;;;;4987435;28;21015;-79
2022/10/03 07:14:00;;;;;;;19.33;10.10;;;13.00;99.90;;;;;;5056062;28;20428;-78
2022/10/03 07:17:22;;;;;;;18.00;9.10;;;13.50;99.90;;;;;;5058056;28;20442;-71
2022/10/03 07:20:25;;;;;;;19.77;9.80;;;13.30;99.90;;;;;;5059518;28;20556;-70
2022/10/03 07:23:30;;;;;;;20.23;10.00;;;13.40;99.90;;;;;;5026931;28;20454;-70
2022/10/03 07:26:26;;;;;;;21.43;9.83;;;13.70;99.90;;;;;;5054147;28;20473;-70
2022/10/03 07:29:08;;;;;;;19.57;9.10;;;;;;;;;;5059696;28;20432;-70
2022/10/03 07:31:44;;;;;;;16.23;10.03;;;;;;;;;;5058464;28;20444;-71
2022/10/03 07:34:41;;;;;;;20.40;9.63;;;13.80;99.90;;;;;;5059247;28;20445;-71
2022/10/03 07:40:50;;;;;;;19.80;10.23;;;13.80;99.90;;;;;;5058736;28;20527;-71
2022/10/03 07:43:35;;;;;;;14.83;8.93;;;;;;;;;;5059336;28;20445;-71
2022/10/03 07:46:27;;;;;;;21.70;8.60;;;;;;;;;;5059392;28;20818;-71
2022/10/03 07:49:06;;;;;;;14.97;8.60;;;;;;;;;;5059020;28;20442;-71
2022/10/03 07:51:42;;;;;;;17.87;8.60;;;14.20;97.80;;;;;;5055670;28;20480;-70
2022/10/03 07:54:34;;;;;;;16.07;8.23;;;14.50;97.50;;;;;;5068930;28;20471;-70
2022/10/03 07:57:28;;;;;;;14.70;7.73;;;14.60;97.30;;;;;;5076132;28;20461;-71
2022/10/03 08:00:17;;;;;;;18.43;8.97;;;14.70;97.40;;;;;;5072122;28;20576;-71
2022/10/03 08:03:15;;;;;;;11.33;8.73;;;14.90;96.70;;;;;;5064383;28;20465;-72
2022/10/03 08:06:17;;;;;;;14.20;8.97;;;14.80;96.60;;;;;;5067313;28;21881;-71
2022/10/03 08:09:14;;;;;;;15.07;9.37;;;15.00;96.20;;;;;;5072408;28;20545;-72
2022/10/03 08:11:59;;;;;;;16.43;9.30;;;14.70;96.00;;;;;;5072943;28;20513;-72
2022/10/03 08:14:38;;;;;;;15.63;8.30;;;15.20;96.10;;;;;;5063467;28;20465;-73
2022/10/03 08:17:36;;;;;;;15.80;9.13;;;15.10;96.10;;;;;;5063319;28;20460;-73
2022/10/03 08:20:22;;;;;;;20.27;8.80;;;15.50;96.30;;;;;;5070010;28;20504;-72
2022/10/03 08:23:01;;;;;;;16.87;9.37;;;15.20;95.60;;;;;;5059729;28;20469;-72
2022/10/03 08:25:38;;;;;;;17.40;8.43;;;15.20;95.50;;;;;;5072810;28;20459;-72
2022/10/03 08:28:46;;;;;;;14.97;8.90;;;15.10;95.30;;;;;;5063791;28;20531;-73
2022/10/03 08:31:51;;;;;;;15.63;8.67;;;15.10;95.70;;;;;;5046494;28;20481;-73
2022/10/03 08:34:57;;;;;;;12.00;8.40;;;15.10;96.10;;;;;;5059486;28;20460;-72
2022/10/03 08:38:06;;;;;;;20.23;9.23;;;15.30;96.90;;;;;;5062361;28;20472;-73
2022/10/03 08:41:00;;;;;;;18.53;9.07;;;15.10;96.60;;;;;;5072443;28;20495;-73
2022/10/03 08:44:03;;;;;;;15.57;8.80;;;15.00;96.30;;;;;;5074950;28;20447;-73
2022/10/03 08:47:01;;;;;;;13.23;8.37;;;15.20;96.60;;;;;;5055266;28;20469;-72
2022/10/03 08:49:54;;;;;;;21.20;7.70;;;15.20;96.70;;;;;;5056057;28;20572;-73
2022/10/03 08:52:37;;;;;;;13.40;7.57;;;15.10;96.80;;;;;;5032484;28;20473;-73
2022/10/03 08:55:31;;;;;;;16.33;7.60;;;15.20;97.30;;;;;;5058149;28;20461;-73
2022/10/03 08:58:26;;;;;;;13.10;8.30;;;15.40;97.00;;;;;;5062032;28;20464;-73
2022/10/03 09:01:11;;;;;;;17.73;8.17;;;15.30;97.10;;;;;;5068517;28;20473;-73
2022/10/03 09:04:23;;;;;;;12.70;8.00;;;15.50;96.50;;;;;;5066814;28;20508;-73
2022/10/03 09:07:09;;;;;;;16.87;6.73;;;15.70;97.10;;;;;;5061098;28;21009;-73
2022/10/03 09:10:15;;;;;;;13.27;7.30;;;15.60;98.90;;;;;;5055504;28;20485;-73
2022/10/03 09:13:17;;;;;;;13.70;6.80;;;15.30;97.20;;;;;;5066987;28;20469;-73
2022/10/03 09:16:30;;;;;;;10.17;5.70;;;15.90;98.30;;;;;;5049868;28;20983;-72
2022/10/03 09:19:16;;;;;;;11.70;5.27;;;16.00;97.40;;;;;;5068020;28;20503;-73
2022/10/03 09:22:21;;;;;;;11.10;5.40;;;16.20;99.90;;;;;;5065586;28;20461;-73
2022/10/03 09:25:22;;;;;;;11.20;4.90;;;16.10;97.70;;;;;;5013546;28;20455;-73
2022/10/03 09:28:23;;;;;;;15.20;5.60;;;16.40;98.40;;;;;;5055540;28;20465;-73
2022/10/03 09:31:02;;;;;;;9.80;5.30;;;16.30;98.30;;;;;;5058798;28;20526;-73
2022/10/03 09:34:08;;;;;;;12.03;4.40;;;15.90;96.60;;;;;;5062765;28;20446;-73
2022/10/03 09:37:10;;;;;;;11.57;4.60;;;16.30;97.70;;;;;;5056158;28;20584;-73
2022/10/03 09:40:16;;;;;;;10.90;4.20;;;16.60;93.20;;;;;;5054200;28;20564;-74
2022/10/03 09:43:18;;;;;;;10.30;4.13;;;16.80;93.60;;;;;;5055607;28;20465;-74
2022/10/03 09:46:25;;;;;;;12.47;3.77;;;16.90;93.10;;;;;;5051987;28;20468;-74
2022/10/03 09:49:23;;;;;;;10.63;4.00;;;;;;;;;;5024872;28;20464;-74
2022/10/03 09:52:07;;;;;;;5.10;2.73;;;17.60;92.00;;;;;;5054605;28;20466;-73
2022/10/03 09:55:11;;;;;;;5.77;2.93;;;18.10;90.50;;;;;;5059104;28;20462;-73
2022/10/03 09:58:06;;;;;;;12.73;3.17;;;18.50;86.70;;;;;;5064198;28;20468;-74
2022/10/03 10:01:07;;;;;;;10.20;3.43;;;18.90;83.60;;;;;;5076397;28;21004;-73
2022/10/03 10:04:07;;;;;;;12.07;2.90;;;19.20;82.50;;;;;;5058515;28;20457;-73
2022/10/03 10:06:54;;;;;;;14.93;4.03;;;19.30;79.80;;;;;;5047903;28;20470;-72
2022/10/03 10:09:48;;;;;;;12.87;3.20;;;19.60;78.70;;;;;;5057257;28;20497;-71
2022/10/03 10:12:41;;;;;;;6.00;2.70;;;19.70;76.50;;;;;;5058471;28;20449;-72
2022/10/03 10:15:41;;;;;;;5.50;2.20;;;19.60;76.40;;;;;;5076930;28;20465;-71
2022/10/03 10:18:46;;;;;;;9.77;2.93;;;19.70;75.80;;;;;;5077636;28;20478;-71
2022/10/03 10:21:47;;;;;;;10.70;2.53;;;19.80;76.40;;;;;;5064428;28;21039;-72
2022/10/03 10:24:45;;;;;;;13.57;3.43;;;19.90;73.70;;;;;;5068445;28;20992;-72
2022/10/03 10:27:38;;;;;;;12.80;2.60;;;20.30;76.70;;;;;;5070582;28;20507;-72
2022/10/03 10:30:26;;;;;;;13.83;3.30;;;20.90;68.90;;;;;;5067160;28;21036;-72
2022/10/03 10:33:37;;;;;;;5.43;1.80;;;21.60;65.70;;;;;;5073897;28;20472;-72
2022/10/03 10:36:49;;;;;;;8.10;1.73;;;22.60;61.50;;;;;;5077611;28;20976;-72
2022/10/03 10:39:58;;;;;;;6.37;2.03;;;23.30;56.90;;;;;;5069440;28;20486;-75
2022/10/03 10:42:57;;;;;;;7.00;1.90;;;23.80;55.10;;;;;;5054468;28;20467;-73
2022/10/03 10:45:38;;;;;;;10.60;2.17;;;23.80;53.10;;;;;;5058781;28;20461;-72
2022/10/03 10:48:35;;;;;;;6.73;2.03;;;23.60;53.60;;;;;;5076359;28;20452;-71
2022/10/03 10:51:44;;;;;;;7.93;2.37;;;23.60;52.80;;;;;;5078602;28;20480;-71
2022/10/03 10:54:39;;;;;;;8.10;2.33;;;23.60;53.40;;;;;;5067268;28;20474;-71
2022/10/03 10:57:22;;;;;;;5.03;1.53;;;23.80;53.30;;;;;;5070673;28;20547;-71
2022/10/03 11:00:16;;;;;;;6.60;1.80;;;24.20;53.50;;;;;;5080759;28;20492;-71
2022/10/03 11:03:20;;;;;;;6.33;2.23;;;24.70;52.60;;;;;;5061968;28;20457;-71
2022/10/03 11:06:33;;;;;;;8.07;3.00;;;24.60;50.60;;;;;;5060959;28;20466;-70
2022/10/03 11:09:27;;;;;;;7.13;1.90;;;24.80;50.40;;;;;;5061347;28;20473;-72
2022/10/03 11:12:31;;;;;;;4.83;2.50;;;25.40;49.30;;;;;;5059847;28;20504;-72
2022/10/03 11:15:42;;;;;;;7.00;2.73;;;26.20;46.70;;;;;;5072973;28;20468;-71
2022/10/03 11:18:38;;;;;;;5.47;2.23;;;26.90;45.10;;;;;;5058076;28;20488;-73
2022/10/03 11:21:36;;;;;;;5.00;1.70;;;27.80;43.90;;;;;;5024732;28;20521;-72
2022/10/03 11:24:35;;;;;;;5.40;1.70;;;28.70;40.50;;;;;;5063326;28;20461;-73
2022/10/03 11:27:44;;;;;;;3.13;1.10;;;29.60;37.40;;;;;;5066196;28;20468;-75
2022/10/03 11:30:23;;;;;;;5.37;1.53;;;30.50;35.50;;;;;;5070138;28;20484;-74
2022/10/03 11:33:27;;;;;;;5.10;1.70;;;30.80;34.10;;;;;;5061197;28;20468;-74
2022/10/03 11:36:16;;;;;;;4.57;2.10;;;30.20;34.10;;;;;;5060343;28;20457;-74
2022/10/03 11:38:54;;;;;;;7.20;1.83;;;29.00;36.00;;;;;;5076047;28;20465;-73
2022/10/03 11:41:31;;;;;;;8.00;2.03;;;27.80;38.00;;;;;;5081922;28;20479;-71
2022/10/03 11:44:20;;;;;;;5.07;1.37;;;26.90;40.30;;;;;;5060730;28;20457;-71
2022/10/03 11:46:56;;;;;;;4.40;1.47;;;26.20;42.40;;;;;;5067909;28;20465;-74
2022/10/03 11:50:00;;;;;;;5.43;1.63;;;25.80;42.50;;;;;;5068817;28;20485;-77
2022/10/03 11:52:33;;;;;;;5.10;1.80;;;26.00;43.30;;;;;;5058528;28;20466;-77
2022/10/03 11:55:18;;;;;;;6.10;1.80;;;26.20;41.50;;;;;;5071460;28;20457;-70
2022/10/03 11:57:54;;;;;;;4.93;2.17;;;26.40;41.30;;;;;;5056541;28;20453;-72
2022/10/03 12:00:24;;;;;;;4.13;1.40;;;26.30;41.70;;;;;;5055716;28;20501;-70
2022/10/03 12:03:03;;;;;;;4.33;1.40;;;26.30;41.40;;;;;;5055393;28;20464;-71
2022/10/03 12:05:47;;;;;;;3.87;1.57;;;26.40;41.50;;;;;;5055891;28;20438;-71
2022/10/03 12:11:16;;;;;;;3.03;1.80;;;26.50;41.10;;;;;;5051664;28;20509;-71
2022/10/03 12:13:51;;;;;;;3.80;1.37;;;26.00;42.00;;;;;;5055169;28;20430;-71
2022/10/03 12:16:26;;;;;;;4.23;1.43;;;26.00;42.90;;;;;;5055291;28;20915;-71
2022/10/03 12:19:01;;;;;;;3.17;1.20;;;26.50;41.60;;;;;;5055821;28;20430;-71
2022/10/03 12:21:39;;;;;;;5.00;1.80;;;27.30;40.30;;;;;;5054464;28;20477;-70
2022/10/03 12:24:23;;;;;;;3.73;1.10;;;28.00;38.60;;;;;;5055108;28;20446;-71
2022/10/03 12:26:58;;;;;;;3.57;1.20;;;28.60;37.00;;;;;;5055402;28;20448;-71
2022/10/03 12:29:26;;;;;;;3.20;1.30;;;29.20;36.10;;;;;;5055451;28;20479;-71
2022/10/03 12:32:20;;;;;;;5.37;1.50;;;30.00;35.30;;;;;;5055466;28;20453;-72
2022/10/03 12:34:54;;;;;;;3.97;1.50;;;31.10;34.10;;;;;;5055963;28;20441;-71
2022/10/03 12:37:40;;;;;;;5.83;1.77;;;31.90;31.10;;;;;;5058072;28;20481;-71
2022/10/03 12:40:17;;;;;;;8.53;2.23;;;31.80;31.20;;;;;;5056700;28;20516;-70
2022/10/03 12:42:52;;;;;;;13.43;2.00;;;31.40;32.20;;;;;;5056722;28;20432;-70
2022/10/03 12:45:26;;;;;;;5.60;1.97;;;30.60;33.00;;;;;;5057170;28;20949;-70
2022/10/03 12:48:02;;;;;;;4.03;1.73;;;29.90;34.20;;;;;;5056224;28;20535;-70
2022/10/03 12:50:43;;;;;;;5.83;1.63;;;29.40;34.70;;;;;;5056894;28;20468;-70
2022/10/03 12:53:40;;;;;;;5.33;1.60;;;28.70;35.90;;;;;;5057354;28;20476;-70
2022/10/03 12:56:17;;;;;;;117.83;12.10;;;27.90;36.00;;;;;;5045305;28;20465;-70
2022/10/03 12:59:07;;;;;;;7.63;1.73;;;27.10;38.50;;;;;;5056511;28;20524;-70
2022/10/03 13:01:55;;;;;;;7.07;1.70;;;26.50;40.40;;;;;;5055462;28;20501;-70
2022/10/03 13:04:34;;;;;;;6.40;1.80;;;25.90;41.50;;;;;;5055837;28;20439;-70
2022/10/03 13:07:14;;;;;;;4.87;1.57;;;25.50;42.70;;;;;;5055033;28;20457;-70
2022/10/03 13:10:01;;;;;;;18.90;3.30;;;25.10;44.00;;;;;;5056116;28;20576;-70
2022/10/03 13:12:39;;;;;;;4.00;1.40;;;24.80;45.00;;;;;;5056497;28;20448;-70
2022/10/03 13:15:44;;;;;;;5.63;1.73;;;24.50;45.60;;;;;;5056894;28;20434;-70
2022/10/03 13:18:26;;;;;;;10.20;2.07;;;24.30;45.80;;;;;;5056190;28;20453;-70
2022/10/03 13:21:01;;;;;;;8.57;1.90;;;24.10;46.60;;;;;;5056732;28;20492;-70
2022/10/03 13:23:39;;;;;;;12.20;1.80;;;23.80;46.80;;;;;;5057388;28;20444;-71
2022/10/03 13:26:13;;;;;;;8.50;1.30;;;23.60;47.70;;;;;;5056983;28;20446;-70
2022/10/03 13:29:12;;;;;;;2.83;1.00;;;23.50;47.60;;;;;;5055991;28;20430;-70
2022/10/03 13:31:50;;;;;;;7.50;1.33;;;23.30;48.00;;;;;;5056191;28;20856;-70
2022/10/03 13:34:20;;;;;;;7.10;1.87;;;23.10;47.90;;;;;;5056131;28;20934;-70
2022/10/03 13:36:54;;;;;;;9.43;2.00;;;23.00;48.10;;;;;;5055280;28;20457;-70
2022/10/03 13:39:26;;;;;;;9.23;2.17;;;22.90;48.90;;;;;;5055777;28;20473;-71
2022/10/03 13:42:09;;;;;;;7.57;1.73;;;22.70;49.40;;;;;;5054810;28;20873;-72
2022/10/03 13:44:39;;;;;;;5.37;1.33;;;22.60;49.60;;;;;;5054521;28;20448;-72
2022/10/03 13:47:26;;;;;;;7.00;1.37;;;22.50;49.40;;;;;;5054687;28;20441;-72
2022/10/03 13:49:55;;;;;;;12.40;2.03;;;22.40;49.60;;;;;;5054451;28;20473;-73
2022/10/03 13:52:29;;;;;;;30.93;2.90;;;22.30;50.10;;;;;;5054750;28;20803;-73
2022/10/03 13:55:18;;;;;;;7.73;2.00;;;22.20;51.10;;;;;;5054172;28;20434;-73
2022/10/03 13:57:53;;;;;;;12.77;1.67;;;22.10;51.40;;;;;;5053714;28;20522;-73
2022/10/03 14:00:25;;;;;;;9.20;2.00;;;22.10;51.60;;;;;;5053947;28;20866;-73
2022/10/03 14:03:07;;;;;;;10.33;1.57;;;22.10;51.50;;;;;;5054254;28;20492;-73
2022/10/03 14:05:56;;;;;;;2.43;0.90;;;22.70;51.10;;;;;;5055270;28;20442;-71
2022/10/03 14:09:09;;;;;;;4.83;1.40;;;24.10;48.70;;;;;;5055537;28;20437;-71
2022/10/03 14:11:45;;;;;;;2.77;0.90;;;24.90;47.20;;;;;;5049379;28;20450;-71
2022/10/03 14:14:34;;;;;;;5.33;1.23;;;25.10;44.70;;;;;;5055522;28;20434;-71
2022/10/03 14:17:10;;;;;;;5.30;1.83;;;24.90;44.90;;;;;;5055087;28;20434;-71
2022/10/03 14:19:45;;;;;;;9.77;2.27;;;24.60;45.10;;;;;;5055256;28;20461;-70
2022/10/03 14:22:25;;;;;;;6.13;1.57;;;24.30;45.80;;;;;;5054426;28;20472;-71
2022/10/03 14:25:02;;;;;;;40.93;4.40;;;24.00;47.30;;;;;;5055024;28;20503;-70
2022/10/03 14:27:49;;;;;;;5.30;1.37;;;23.80;48.70;;;;;;5056075;28;20899;-69
2022/10/03 14:30:18;;;;;;;5.30;1.80;;;23.90;50.30;;;;;;5055137;28;20476;-69
2022/10/03 14:32:54;;;;;;;1.80;0.90;;;24.50;48.80;;;;;;5055024;28;20441;-69
2022/10/03 14:35:38;;;;;;;67.07;7.50;;;25.00;47.10;;;;;;5056518;28;20430;-69
2022/10/03 14:38:56;;;;;;;147.37;10.70;;;25.20;45.80;;;;;;5055978;28;20829;-71
2022/10/03 14:41:22;;;;;;;391.27;35.83;;;25.00;45.80;;;;;;5056293;28;20598;-70